Du har inga inställningar för hoppväder.nu

Hoppväder.nu

Senast uppdaterat 05:14

UTC-tid

2018-06-20 kl. 03:14


Sol och måne

Solen går upp 3:12 och går ner 22:37 (beräknade cirkatider)
Nästa fullmåne blir om 8 dagar (2018-06-28)


Väderstation:

Väderrapport från: 2018-06-20 05:14
Vindriktning: 214°
Vindstyrka: 3 m/s
Byvind: 5 m/s
Lufttryck: 997,4 hPa
Temperatur: 13,6°C
Daggpunkt: 1°C
Luftfuktighet: 41%
Sikt: 14 km




METAR

ESSD (Borlänge)
(24 minuter sedan)
ESSD 200250Z AUTO 27011KT 9999 NCD 11/01 Q1008=



ESNN (Sundsvall-Härnösand)
(24 minuter sedan)
ESNN 200250Z AUTO 34002KT 9999 NCD 07/06 Q1003=












TAF

ESSD (Borlänge)
ESSD



ESNN (Sundsvall-Härnösand)
(404 minuter sedan)
ESNN 192030Z 1921/2001 25006KT CAVOK TEMPO 1921/1922 SHRA SCT040CB=





Kodnycklar till TAF och METAR






LHP

(Mohed är område D2b i Sydöstra delen)

Prognos är inte uppdaterad




Spotting

Hur fungerar spotthjälpen och Vindkartan?

Markvind är ca 0 m/s.



Vindkartan

Senast uppdaterad 05:14


All data kommer från LFV.se,
från SÖFKs väderstation Weather underground